Terminal Aerodrome Forecast
Issued by NWS

Home | Current Version | Previous Version | Text Only | Print | Product List | Glossary On
Versions: 1 2 3 4 5 6 7 8 9 10 11 12 13 14 15 16 17 18 19 20 21 22 23 24 25 26 27 28 29
580
FTUS41 KRNK 250726 AAA
TAFBCB
TAF AMD
KBCB 250726Z 2507/2606 00000KT P6SM SCT250
      TEMPO 2509/2512 3SM BR SCT002
     FM251500 25007KT P6SM SCT050 SCT250
     FM252000 25006KT P6SM VCSH BKN050
     FM260200 VRB03KT P6SM SCT050 BKN120=

USA.gov is the U.S. government's official web portal to all federal, state and local government web resources and services.